Time;durP1;ratioP1;P1;durP2;ratioP2;P2;SDS_P1;SDS_P2;PMS_P1;PMS_P2;Temp;Humidity;BMP_temperature;BMP_pressure;BME280_temperature;BME280_humidity;BME280_pressure;Samples;Min_cycle;Max_cycle;Signal;HPM_P1;HPM_P2
2022/07/17 00:01:37;;;;;;;4.38;3.30;;;27.60;1.00;;;;;;5094433;28;20225;-77
2022/07/17 00:04:04;;;;;;;4.40;3.45;;;27.50;1.00;;;;;;5094146;28;20254;-77
2022/07/17 00:06:31;;;;;;;3.63;2.58;;;27.30;1.00;;;;;;5094757;28;20201;-77
2022/07/17 00:08:58;;;;;;;5.50;3.58;;;27.10;1.00;;;;;;5094611;28;20205;-77
2022/07/17 00:11:26;;;;;;;3.90;3.60;;;27.10;1.00;;;;;;5094481;28;20205;-76
2022/07/17 00:13:54;;;;;;;4.35;3.92;;;27.10;1.00;;;;;;5094588;28;20591;-71
2022/07/17 00:16:22;;;;;;;3.35;2.83;;;27.10;1.00;;;;;;5093939;28;20220;-73
2022/07/17 00:18:49;;;;;;;3.20;2.17;;;27.10;1.00;;;;;;5094431;28;20213;-74
2022/07/17 00:21:16;;;;;;;2.80;2.53;;;26.90;1.00;;;;;;5094397;28;20251;-75
2022/07/17 00:23:43;;;;;;;3.85;3.00;;;26.50;1.00;;;;;;5094583;28;20213;-75
2022/07/17 00:26:10;;;;;;;2.38;2.17;;;26.60;1.90;;;;;;5093754;28;20205;-75
2022/07/17 00:28:37;;;;;;;2.60;2.40;;;26.50;1.00;;;;;;5095025;28;20209;-75
2022/07/17 00:31:05;;;;;;;2.63;2.42;;;26.40;1.10;;;;;;5080248;28;20731;-76
2022/07/17 00:33:33;;;;;;;2.83;2.58;;;26.40;2.00;;;;;;5094717;28;20548;-76
2022/07/17 00:36:00;;;;;;;2.90;2.70;;;26.30;2.10;;;;;;5094170;28;20213;-74
2022/07/17 00:38:28;;;;;;;2.10;1.73;;;26.40;2.40;;;;;;5094318;28;20231;-75
2022/07/17 00:40:56;;;;;;;3.22;2.92;;;26.30;1.50;;;;;;5094301;28;20634;-75
2022/07/17 00:43:23;;;;;;;2.40;2.20;;;26.30;2.20;;;;;;5093127;28;20749;-74
2022/07/17 00:45:56;;;;;;;2.10;2.00;;;26.30;2.60;;;;;;5093619;28;20235;-73
2022/07/17 00:48:24;;;;;;;1.80;1.70;;;26.20;3.40;;;;;;5090170;28;20210;-74
2022/07/17 00:50:52;;;;;;;2.38;2.17;;;26.10;3.40;;;;;;5093881;28;20213;-74
2022/07/17 00:53:19;;;;;;;2.70;2.50;;;26.10;3.60;;;;;;5078708;28;20214;-76
2022/07/17 00:55:48;;;;;;;2.30;1.60;;;26.10;3.30;;;;;;5093222;28;20559;-76
2022/07/17 00:58:20;;;;;;;2.00;1.80;;;26.00;3.50;;;;;;5079836;28;20216;-74
2022/07/17 01:00:49;;;;;;;3.05;2.17;;;25.90;26.10;;;;;;5093471;28;20241;-74
2022/07/17 01:03:16;;;;;;;5.65;5.15;;;25.80;4.10;;;;;;5093299;28;20233;-74
2022/07/17 01:05:43;;;;;;;4.03;3.72;;;25.80;5.30;;;;;;5081206;28;20245;-74
2022/07/17 01:08:12;;;;;;;4.28;3.90;;;25.50;6.30;;;;;;5091099;28;20210;-74
2022/07/17 01:10:39;;;;;;;4.38;3.97;;;25.30;7.30;;;;;;5093356;28;20205;-77
2022/07/17 01:13:06;;;;;;;3.85;3.45;;;24.90;7.20;;;;;;5092691;28;20221;-74
2022/07/17 01:15:36;;;;;;;3.85;3.45;;;24.80;8.00;;;;;;5094140;28;20205;-77
2022/07/17 01:18:07;;;;;;;4.22;3.88;;;24.70;31.40;;;;;;5094083;28;20205;-75
2022/07/17 01:20:34;;;;;;;5.95;4.13;;;24.70;10.90;;;;;;5095060;28;20237;-76
2022/07/17 01:23:02;;;;;;;3.60;3.30;;;24.40;10.80;;;;;;5079076;28;20238;-72
2022/07/17 01:25:29;;;;;;;2.75;2.55;;;24.40;11.70;;;;;;5079556;28;20209;-72
2022/07/17 01:27:57;;;;;;;3.90;3.17;;;24.40;11.80;;;;;;5093262;28;20673;-73
2022/07/17 01:30:24;;;;;;;3.10;2.90;;;24.40;13.70;;;;;;5092511;28;20208;-74
2022/07/17 01:32:51;;;;;;;4.38;2.67;;;24.50;13.90;;;;;;5093064;28;20262;-74
2022/07/17 01:35:18;;;;;;;3.35;3.15;;;24.50;14.10;;;;;;5092484;28;20666;-75
2022/07/17 01:37:46;;;;;;;3.25;2.95;;;24.60;14.70;;;;;;5092909;28;20205;-74
2022/07/17 01:40:16;;;;;;;3.28;3.05;;;24.70;15.60;;;;;;5092570;28;20255;-74
2022/07/17 01:42:44;;;;;;;4.28;2.85;;;24.70;15.40;;;;;;5092686;28;20229;-74
2022/07/17 01:45:13;;;;;;;2.90;2.70;;;24.40;15.80;;;;;;5092333;28;20262;-74
2022/07/17 01:47:40;;;;;;;4.15;2.88;;;24.30;14.80;;;;;;5093068;28;20209;-74
2022/07/17 01:50:08;;;;;;;3.80;3.08;;;24.40;16.00;;;;;;5092517;28;20201;-75
2022/07/17 01:52:38;;;;;;;4.72;3.67;;;24.50;15.50;;;;;;5092729;28;20262;-74
2022/07/17 01:55:05;;;;;;;3.75;3.45;;;24.60;16.50;;;;;;5092318;28;20205;-74
2022/07/17 01:57:34;;;;;;;4.07;3.45;;;24.50;16.50;;;;;;5077940;28;20635;-75
2022/07/17 02:00:01;;;;;;;4.82;3.47;;;24.40;16.40;;;;;;5092106;28;20255;-70
2022/07/17 02:02:28;;;;;;;4.25;3.85;;;24.60;17.30;;;;;;5092285;28;20228;-71
2022/07/17 02:04:55;;;;;;;5.38;2.97;;;24.50;16.70;;;;;;5092591;28;20225;-74
2022/07/17 02:07:22;;;;;;;4.88;3.45;;;24.60;17.50;;;;;;5092127;28;20255;-70
2022/07/17 02:09:49;;;;;;;4.18;3.30;;;24.60;17.00;;;;;;5092550;28;20695;-74
2022/07/17 02:12:16;;;;;;;4.32;3.40;;;24.80;17.20;;;;;;5091568;28;20247;-73
2022/07/17 02:14:44;;;;;;;3.65;3.35;;;24.80;18.30;;;;;;5092231;28;20202;-73
2022/07/17 02:17:11;;;;;;;4.10;3.70;;;24.80;18.30;;;;;;5091623;28;20642;-74
2022/07/17 02:19:38;;;;;;;3.70;3.00;;;24.80;18.60;;;;;;5091797;28;20658;-73
2022/07/17 02:22:06;;;;;;;3.88;3.22;;;24.70;18.70;;;;;;5091178;28;20708;-73
2022/07/17 02:24:32;;;;;;;3.42;3.15;;;24.80;17.70;;;;;;5091799;28;20259;-70
2022/07/17 02:26:59;;;;;;;4.88;4.28;;;24.70;18.70;;;;;;5091883;28;20206;-70
2022/07/17 02:29:26;;;;;;;3.20;2.83;;;24.60;18.30;;;;;;5092163;28;20233;-71
2022/07/17 02:31:55;;;;;;;4.10;2.97;;;24.60;18.80;;;;;;5091744;28;20198;-76
2022/07/17 02:34:22;;;;;;;5.93;3.20;;;24.70;18.50;;;;;;5094740;28;20206;-76
2022/07/17 02:36:49;;;;;;;3.38;3.10;;;24.70;18.50;;;;;;5092617;28;20779;-77
2022/07/17 02:39:16;;;;;;;8.02;3.85;;;24.60;18.90;;;;;;5091560;28;20255;-77
2022/07/17 02:41:43;;;;;;;4.20;3.70;;;24.50;18.80;;;;;;5091219;28;20213;-76
2022/07/17 02:44:10;;;;;;;4.50;3.60;;;24.50;18.90;;;;;;5091248;28;20256;-77
2022/07/17 02:46:37;;;;;;;4.10;3.80;;;24.50;19.30;;;;;;5091379;28;20263;-76
2022/07/17 02:49:06;;;;;;;3.42;3.13;;;24.50;20.10;;;;;;5091614;28;20197;-78
2022/07/17 02:51:33;;;;;;;3.75;3.45;;;24.50;21.10;;;;;;5092024;28;20300;-77
2022/07/17 02:53:59;;;;;;;5.30;3.20;;;24.40;19.60;;;;;;5091647;28;20258;-73
2022/07/17 02:56:26;;;;;;;6.57;3.28;;;24.30;20.30;;;;;;5083275;28;20210;-74
2022/07/17 02:58:53;;;;;;;3.45;3.15;;;24.40;20.00;;;;;;5085383;28;20645;-77
2022/07/17 03:01:20;;;;;;;4.13;3.47;;;24.30;20.90;;;;;;5091011;28;20677;-75
2022/07/17 03:03:47;;;;;;;4.22;3.70;;;24.40;20.30;;;;;;5091187;28;20263;-76
2022/07/17 03:06:16;;;;;;;3.88;3.28;;;24.40;20.50;;;;;;5090750;28;20263;-76
2022/07/17 03:08:43;;;;;;;3.85;3.55;;;24.40;21.00;;;;;;5091143;28;20669;-77
2022/07/17 03:11:09;;;;;;;3.72;3.42;;;24.40;20.80;;;;;;5090453;28;20197;-73
2022/07/17 03:13:36;;;;;;;4.30;3.90;;;24.30;22.10;;;;;;5091010;28;20270;-73
2022/07/17 03:16:04;;;;;;;5.75;4.18;;;24.30;21.30;;;;;;5090393;28;20210;-73
2022/07/17 03:18:31;;;;;;;3.67;3.35;;;24.30;21.70;;;;;;5091051;28;20764;-75
2022/07/17 03:20:58;;;;;;;6.60;4.80;;;24.30;21.70;;;;;;5091301;28;20262;-76
2022/07/17 03:23:27;;;;;;;3.53;3.22;;;23.90;21.30;;;;;;5076978;28;20653;-74
2022/07/17 03:25:54;;;;;;;3.95;3.55;;;23.60;21.80;;;;;;5091146;28;20213;-73
2022/07/17 03:28:21;;;;;;;3.55;3.25;;;23.30;20.70;;;;;;5090242;28;20669;-73
2022/07/17 03:30:48;;;;;;;3.15;2.85;;;23.10;21.70;;;;;;5091329;28;20254;-73
2022/07/17 03:33:15;;;;;;;3.42;2.95;;;23.00;22.50;;;;;;5089750;28;20202;-73
2022/07/17 03:35:42;;;;;;;4.18;3.38;;;22.80;24.60;;;;;;5090801;28;20253;-73
2022/07/17 03:38:09;;;;;;;4.38;3.60;;;22.60;24.70;;;;;;5090248;28;20209;-71
2022/07/17 03:40:37;;;;;;;4.38;3.60;;;22.60;25.00;;;;;;5090575;28;20237;-74
2022/07/17 03:43:04;;;;;;;5.32;3.70;;;22.50;25.90;;;;;;5090206;28;20233;-77
2022/07/17 03:45:31;;;;;;;3.30;3.05;;;22.50;25.50;;;;;;5076664;28;20262;-76
2022/07/17 03:47:58;;;;;;;4.78;3.90;;;22.50;25.80;;;;;;5090980;28;20252;-71
2022/07/17 03:50:25;;;;;;;3.58;3.28;;;22.50;26.90;;;;;;5088232;28;20256;-75
2022/07/17 03:52:52;;;;;;;3.78;3.35;;;22.40;28.00;;;;;;5080739;28;20206;-75
2022/07/17 03:55:19;;;;;;;4.47;3.60;;;22.30;27.40;;;;;;5086062;28;20454;-74
2022/07/17 03:57:47;;;;;;;3.55;3.25;;;22.20;29.00;;;;;;5077606;28;20630;-72
2022/07/17 04:00:15;;;;;;;3.33;3.03;;;22.20;29.30;;;;;;5077909;28;20681;-74
2022/07/17 04:02:42;;;;;;;3.80;3.22;;;22.10;29.00;;;;;;5078531;28;20279;-74
2022/07/17 04:05:10;;;;;;;4.10;3.67;;;22.20;29.60;;;;;;5078390;28;20583;-74
2022/07/17 04:07:37;;;;;;;3.40;3.13;;;22.10;30.00;;;;;;5080456;28;20270;-74
2022/07/17 04:10:05;;;;;;;5.18;3.40;;;22.20;30.10;;;;;;5078733;28;20202;-74
2022/07/17 04:12:33;;;;;;;2.97;2.67;;;22.00;29.20;;;;;;5083247;28;20216;-71
2022/07/17 04:15:02;;;;;;;3.40;3.13;;;22.30;29.30;;;;;;5079542;28;20210;-74
2022/07/17 04:17:29;;;;;;;3.42;3.13;;;22.50;29.60;;;;;;5078279;28;20209;-75
2022/07/17 04:19:56;;;;;;;5.40;3.60;;;22.30;29.60;;;;;;5071297;28;20206;-77
2022/07/17 04:22:23;;;;;;;4.25;3.95;;;22.30;30.60;;;;;;5084888;28;20258;-75
2022/07/17 04:24:50;;;;;;;6.00;3.88;;;22.20;29.60;;;;;;5082352;28;20242;-79
2022/07/17 04:27:17;;;;;;;3.92;3.63;;;22.30;29.60;;;;;;5085981;28;20251;-72
2022/07/17 04:29:44;;;;;;;3.95;3.55;;;22.40;31.00;;;;;;5084825;28;20264;-76
2022/07/17 04:32:12;;;;;;;4.07;3.45;;;22.50;30.30;;;;;;5085964;28;20551;-74
2022/07/17 04:34:39;;;;;;;5.07;4.63;;;22.80;30.90;;;;;;5086012;28;20264;-78
2022/07/17 04:37:08;;;;;;;5.38;3.40;;;22.80;30.80;;;;;;5084380;28;20692;-77
2022/07/17 04:39:35;;;;;;;5.40;3.95;;;23.00;30.10;;;;;;5087672;28;20211;-77
2022/07/17 04:42:01;;;;;;;3.80;3.47;;;22.90;29.70;;;;;;5085710;28;20247;-72
2022/07/17 04:44:29;;;;;;;4.15;3.75;;;23.00;29.60;;;;;;5088232;28;20278;-76
2022/07/17 04:46:56;;;;;;;3.80;3.50;;;23.10;31.30;;;;;;5091632;28;20202;-76
2022/07/17 04:49:25;;;;;;;4.68;4.07;;;23.10;29.60;;;;;;5092617;28;20236;-76
2022/07/17 04:51:52;;;;;;;4.05;3.75;;;23.00;29.60;;;;;;5092345;28;20209;-69
2022/07/17 04:54:19;;;;;;;4.53;4.00;;;22.90;29.80;;;;;;5093024;28;20209;-73
2022/07/17 04:56:46;;;;;;;3.45;3.15;;;23.00;29.80;;;;;;5082039;28;20209;-79
2022/07/17 04:59:13;;;;;;;3.70;3.40;;;23.00;30.70;;;;;;5076681;28;20218;-75
2022/07/17 05:01:40;;;;;;;3.88;3.58;;;23.10;29.50;;;;;;5073742;28;20210;-78
2022/07/17 05:04:08;;;;;;;3.95;3.65;;;23.20;29.70;;;;;;5075566;28;20248;-71
2022/07/17 05:06:36;;;;;;;3.13;2.88;;;23.20;30.70;;;;;;5074998;28;20700;-69
2022/07/17 05:09:03;;;;;;;3.88;3.58;;;23.20;30.20;;;;;;5077542;28;20585;-78
2022/07/17 05:11:30;;;;;;;4.32;3.90;;;23.30;31.00;;;;;;5076110;28;20210;-71
2022/07/17 05:13:57;;;;;;;3.35;3.08;;;23.30;29.70;;;;;;5077668;28;20260;-72
2022/07/17 05:16:24;;;;;;;4.85;3.80;;;23.30;30.40;;;;;;5077974;28;20634;-70
2022/07/17 05:18:51;;;;;;;4.82;3.38;;;23.10;29.80;;;;;;5077833;28;20210;-70
2022/07/17 05:21:18;;;;;;;5.00;3.55;;;23.00;30.00;;;;;;5080243;28;20231;-78
2022/07/17 05:23:46;;;;;;;4.60;3.95;;;23.10;30.00;;;;;;5077884;28;20366;-73
2022/07/17 05:26:13;;;;;;;3.67;3.30;;;23.00;29.90;;;;;;5082775;28;20198;-72
2022/07/17 05:28:40;;;;;;;3.78;3.47;;;23.10;29.90;;;;;;5078890;28;20271;-76
2022/07/17 05:31:07;;;;;;;3.83;3.53;;;23.10;29.70;;;;;;5084415;28;20306;-70
2022/07/17 05:33:34;;;;;;;4.18;3.83;;;23.10;31.20;;;;;;5079740;28;20695;-74
2022/07/17 05:36:01;;;;;;;3.80;3.47;;;23.20;30.00;;;;;;5084847;28;20734;-70
2022/07/17 05:38:28;;;;;;;5.30;3.47;;;23.30;31.50;;;;;;5082806;28;20214;-71
2022/07/17 05:40:57;;;;;;;4.05;3.70;;;23.40;32.40;;;;;;5086083;28;20250;-72
2022/07/17 05:43:24;;;;;;;3.83;3.42;;;23.40;31.40;;;;;;5084384;28;20237;-71
2022/07/17 05:45:53;;;;;;;4.07;3.60;;;23.40;30.40;;;;;;5086027;28;20246;-74
2022/07/17 05:48:20;;;;;;;3.72;3.42;;;23.50;29.90;;;;;;5086890;28;20266;-71
2022/07/17 05:50:47;;;;;;;4.22;3.83;;;23.40;30.20;;;;;;5085969;28;20206;-71
2022/07/17 05:53:15;;;;;;;5.45;4.05;;;23.50;30.20;;;;;;5078722;28;20210;-72
2022/07/17 05:55:42;;;;;;;4.15;3.85;;;23.60;31.00;;;;;;5082792;28;20210;-71
2022/07/17 05:58:11;;;;;;;4.13;3.83;;;23.70;31.50;;;;;;5071955;28;20293;-71
2022/07/17 06:00:38;;;;;;;5.03;3.78;;;23.80;30.50;;;;;;5073246;28;20563;-72
2022/07/17 06:03:05;;;;;;;5.40;4.20;;;23.90;30.10;;;;;;5072591;28;20268;-72
2022/07/17 06:05:32;;;;;;;4.30;4.00;;;23.90;30.90;;;;;;5073995;28;20246;-68
2022/07/17 06:08:00;;;;;;;4.20;3.90;;;23.90;29.80;;;;;;5075404;28;20198;-71
2022/07/17 06:10:28;;;;;;;3.58;3.28;;;24.00;30.40;;;;;;5075431;28;20206;-74
2022/07/17 06:12:56;;;;;;;3.70;3.22;;;24.10;30.10;;;;;;5086314;28;20263;-73
2022/07/17 06:15:24;;;;;;;5.53;4.05;;;24.20;31.60;;;;;;5072077;28;20198;-70
2022/07/17 06:17:52;;;;;;;4.03;3.70;;;24.20;30.20;;;;;;5077651;28;20209;-71
2022/07/17 06:20:19;;;;;;;4.78;4.25;;;24.40;30.10;;;;;;5076186;28;21023;-71
2022/07/17 06:22:46;;;;;;;4.30;4.00;;;24.30;30.10;;;;;;5077456;28;20255;-70
2022/07/17 06:25:13;;;;;;;5.30;4.00;;;24.40;30.30;;;;;;5077066;28;20351;-71
2022/07/17 06:27:41;;;;;;;4.63;4.22;;;24.70;31.60;;;;;;5083216;28;20646;-71
2022/07/17 06:30:09;;;;;;;4.80;4.40;;;24.80;30.30;;;;;;5078822;28;20202;-71
2022/07/17 06:32:38;;;;;;;5.03;4.57;;;24.80;31.20;;;;;;5084062;28;20205;-71
2022/07/17 06:35:06;;;;;;;4.90;4.50;;;25.00;30.90;;;;;;5081342;28;20214;-71
2022/07/17 06:37:33;;;;;;;4.70;3.95;;;24.90;30.00;;;;;;5085547;28;20673;-71
2022/07/17 06:40:00;;;;;;;4.25;3.83;;;25.10;30.20;;;;;;5084002;28;20209;-71
2022/07/17 06:42:26;;;;;;;4.88;4.43;;;25.20;30.50;;;;;;5084342;28;20210;-71
2022/07/17 06:44:53;;;;;;;4.55;4.15;;;24.90;31.40;;;;;;5085018;28;20721;-71
2022/07/17 06:47:20;;;;;;;4.60;4.20;;;25.10;31.10;;;;;;5081579;28;20230;-71
2022/07/17 06:49:49;;;;;;;4.63;4.22;;;25.00;31.40;;;;;;5087066;28;20630;-71
2022/07/17 06:52:16;;;;;;;4.88;4.20;;;25.00;30.50;;;;;;5082140;28;20210;-74
2022/07/17 06:54:43;;;;;;;5.22;4.72;;;24.90;30.00;;;;;;5087337;28;20620;-72
2022/07/17 06:57:10;;;;;;;5.30;4.80;;;25.10;31.70;;;;;;5072812;28;20670;-70
2022/07/17 06:59:36;;;;;;;5.95;5.00;;;25.30;30.80;;;;;;5071515;28;20237;-73
2022/07/17 07:02:04;;;;;;;5.05;4.53;;;25.30;30.40;;;;;;5071235;28;20598;-73
2022/07/17 07:04:31;;;;;;;5.88;5.38;;;25.30;30.50;;;;;;5073178;28;20291;-72
2022/07/17 07:06:59;;;;;;;6.15;4.88;;;25.60;30.30;;;;;;5072885;28;20582;-71
2022/07/17 07:09:26;;;;;;;5.63;5.00;;;25.70;31.10;;;;;;5076053;28;20267;-72
2022/07/17 07:11:53;;;;;;;5.50;5.10;;;25.70;30.60;;;;;;5073811;28;20301;-76
2022/07/17 07:14:20;;;;;;;5.07;4.30;;;25.90;30.00;;;;;;5073545;28;20247;-70
2022/07/17 07:16:47;;;;;;;4.90;4.50;;;26.10;31.00;;;;;;5074872;28;20253;-76
2022/07/17 07:19:14;;;;;;;5.07;4.63;;;26.30;30.10;;;;;;5079443;28;20202;-74
2022/07/17 07:21:41;;;;;;;5.07;4.50;;;26.60;30.10;;;;;;5076227;28;20263;-73
2022/07/17 07:24:09;;;;;;;5.28;4.78;;;26.90;29.80;;;;;;5077890;28;20225;-75
2022/07/17 07:26:36;;;;;;;5.38;4.53;;;26.80;29.90;;;;;;5078724;28;20630;-75
2022/07/17 07:29:03;;;;;;;4.88;4.47;;;26.70;29.40;;;;;;5081188;28;20288;-79
2022/07/17 07:31:30;;;;;;;5.30;4.80;;;26.90;29.60;;;;;;5090804;28;20205;-78
2022/07/17 07:33:57;;;;;;;4.63;4.22;;;27.20;27.90;;;;;;5090492;28;20566;-74
2022/07/17 07:36:24;;;;;;;4.45;4.05;;;27.50;27.10;;;;;;5075632;28;20206;-77
2022/07/17 07:38:52;;;;;;;5.85;5.35;;;27.40;26.60;;;;;;5071152;28;20279;-74
2022/07/17 07:41:20;;;;;;;5.40;4.88;;;27.40;27.40;;;;;;5070545;28;20202;-78
2022/07/17 07:43:47;;;;;;;4.20;3.90;;;27.60;26.90;;;;;;5070338;28;20276;-79
2022/07/17 07:46:14;;;;;;;5.82;5.32;;;27.80;26.00;;;;;;5069971;28;20252;-78
2022/07/17 07:48:41;;;;;;;5.70;5.13;;;28.00;26.90;;;;;;5070366;28;20670;-78
2022/07/17 07:51:08;;;;;;;4.40;4.10;;;28.10;25.60;;;;;;5069278;28;20244;-77
2022/07/17 07:53:35;;;;;;;5.32;4.82;;;28.30;27.10;;;;;;5071321;28;20215;-75
2022/07/17 07:56:02;;;;;;;5.28;4.85;;;28.20;24.80;;;;;;5077428;28;20259;-78
2022/07/17 07:58:31;;;;;;;4.40;3.97;;;28.30;25.20;;;;;;5078042;28;20259;-75
2022/07/17 08:00:58;;;;;;;4.97;4.57;;;28.50;25.10;;;;;;5072117;28;20260;-80
2022/07/17 08:03:25;;;;;;;4.72;4.30;;;28.60;24.50;;;;;;5072350;28;20635;-81
2022/07/17 08:05:52;;;;;;;6.43;4.75;;;28.70;25.20;;;;;;5073406;28;20233;-83
2022/07/17 08:08:19;;;;;;;4.40;4.00;;;28.50;23.10;;;;;;5071281;28;20252;-82
2022/07/17 08:10:46;;;;;;;4.10;3.60;;;28.90;23.30;;;;;;5077501;28;20271;-77
2022/07/17 08:13:13;;;;;;;4.38;4.07;;;28.90;23.50;;;;;;5072009;28;20214;-82
2022/07/17 08:15:41;;;;;;;5.57;5.18;;;29.40;23.30;;;;;;5071849;28;20259;-80
2022/07/17 08:18:08;;;;;;;5.70;5.20;;;29.70;23.60;;;;;;5073557;28;20202;-70
2022/07/17 08:20:35;;;;;;;5.30;4.80;;;29.80;22.50;;;;;;5076753;28;20214;-81
2022/07/17 08:23:02;;;;;;;4.88;4.47;;;29.90;22.00;;;;;;5080534;28;20267;-82
2022/07/17 08:25:29;;;;;;;6.88;5.22;;;30.00;22.20;;;;;;5078603;28;20241;-81
2022/07/17 08:27:56;;;;;;;5.53;4.97;;;29.90;23.20;;;;;;5080481;28;20266;-78
2022/07/17 08:30:23;;;;;;;5.95;4.95;;;30.30;22.70;;;;;;5082226;28;20202;-74
2022/07/17 08:32:51;;;;;;;4.95;4.50;;;30.20;21.60;;;;;;5073286;28;20735;-79
2022/07/17 08:35:19;;;;;;;4.22;3.92;;;30.30;22.60;;;;;;5073102;28;20203;-73
2022/07/17 08:37:47;;;;;;;5.10;4.68;;;30.50;21.70;;;;;;5073642;28;20305;-73
2022/07/17 08:40:20;;;;;;;5.30;4.80;;;30.50;21.40;;;;;;5072391;28;20202;-69
2022/07/17 08:42:47;;;;;;;5.30;5.00;;;30.50;20.90;;;;;;5073380;28;20202;-80
2022/07/17 08:45:14;;;;;;;5.15;4.70;;;30.80;45.50;;;;;;5073032;28;20279;-79
2022/07/17 08:47:41;;;;;;;4.40;4.00;;;30.90;21.40;;;;;;5073747;28;20620;-76
2022/07/17 08:50:11;;;;;;;8.43;6.25;;;30.90;20.30;;;;;;5073378;28;20224;-80
2022/07/17 08:52:38;;;;;;;4.75;4.35;;;30.80;20.30;;;;;;5073758;28;20263;-79
2022/07/17 08:55:08;;;;;;;5.03;4.63;;;30.80;20.20;;;;;;5072990;28;20410;-71
2022/07/17 08:57:38;;;;;;;5.35;4.85;;;31.20;20.70;;;;;;5077275;28;20205;-83
2022/07/17 09:00:06;;;;;;;4.72;4.30;;;31.90;21.80;;;;;;5093571;28;20201;-83
2022/07/17 09:02:33;;;;;;;4.72;4.43;;;33.30;22.10;;;;;;5093724;28;20676;-83
2022/07/17 09:05:00;;;;;;;5.78;4.78;;;35.30;23.20;;;;;;5093752;28;20228;-80
2022/07/17 09:07:28;;;;;;;5.93;4.53;;;36.60;25.60;;;;;;5094017;28;20254;-84
2022/07/17 09:09:55;;;;;;;6.05;5.55;;;38.50;29.80;;;;;;5094286;28;20213;-82
2022/07/17 09:12:26;;;;;;;4.43;3.92;;;37.40;28.30;;;;;;5093243;28;20270;-80
2022/07/17 09:14:53;;;;;;;5.18;4.78;;;37.20;29.40;;;;;;5093570;28;20234;-82
2022/07/17 09:17:20;;;;;;;4.55;4.15;;;36.90;27.80;;;;;;5094104;28;20212;-81
2022/07/17 09:19:47;;;;;;;4.93;4.63;;;36.00;24.60;;;;;;5093443;28;20248;-79
2022/07/17 09:22:16;;;;;;;4.57;4.18;;;34.90;24.20;;;;;;5092953;28;20205;-77
2022/07/17 09:24:49;;;;;;;6.95;4.72;;;34.60;22.50;;;;;;5093238;28;20641;-82
2022/07/17 09:27:30;;;;;;;3.72;3.42;;;34.30;23.50;;;;;;5079016;28;20202;-82
2022/07/17 09:30:00;;;;;;;4.43;4.07;;;34.90;23.90;;;;;;5089967;28;20680;-81
2022/07/17 09:32:29;;;;;;;3.67;3.40;;;34.90;22.40;;;;;;5093679;28;20258;-79
2022/07/17 09:35:00;;;;;;;4.70;4.13;;;35.30;21.80;;;;;;5093395;28;20258;-80
2022/07/17 09:37:28;;;;;;;4.90;4.00;;;35.30;23.10;;;;;;5093760;28;20209;-78
2022/07/17 09:39:58;;;;;;;4.22;3.92;;;35.80;24.40;;;;;;5093240;28;20625;-80
2022/07/17 09:42:27;;;;;;;3.95;3.65;;;36.40;27.00;;;;;;5092731;28;20680;-79
2022/07/17 09:45:02;;;;;;;4.15;3.63;;;37.80;29.30;;;;;;5092912;28;20220;-77
2022/07/17 09:47:31;;;;;;;4.20;3.90;;;39.70;36.90;;;;;;5093326;28;20264;-70
2022/07/17 09:49:59;;;;;;;3.90;3.55;;;39.90;36.70;;;;;;5092919;28;20672;-79
2022/07/17 09:52:29;;;;;;;5.10;4.07;;;40.40;40.60;;;;;;5093525;28;20208;-82
2022/07/17 09:54:59;;;;;;;4.45;3.72;;;38.40;30.10;;;;;;5093853;28;20209;-83
2022/07/17 09:57:28;;;;;;;5.55;4.40;;;39.90;30.20;;;;;;5078502;28;20205;-79
2022/07/17 09:59:56;;;;;;;4.75;4.35;;;39.60;30.10;;;;;;5093392;28;20200;-83
2022/07/17 10:02:24;;;;;;;5.88;3.90;;;37.90;27.40;;;;;;5092254;28;20684;-79
2022/07/17 10:04:52;;;;;;;4.75;4.38;;;38.50;26.00;;;;;;5092760;28;20604;-82
2022/07/17 10:07:20;;;;;;;3.83;3.53;;;37.80;28.50;;;;;;5092424;28;20875;-79
2022/07/17 10:09:47;;;;;;;4.60;3.90;;;39.30;29.90;;;;;;5092832;28;20205;-81
2022/07/17 10:12:17;;;;;;;4.00;3.60;;;40.50;29.10;;;;;;5092000;28;20213;-70
2022/07/17 10:14:48;;;;;;;4.47;4.00;;;41.50;69.00;;;;;;5092366;28;20205;-70
2022/07/17 10:17:20;;;;;;;4.05;3.55;;;42.20;41.10;;;;;;5091966;28;20201;-73
2022/07/17 10:19:50;;;;;;;3.88;3.58;;;41.60;34.80;;;;;;5092292;28;20205;-79
2022/07/17 10:22:17;;;;;;;4.38;3.97;;;42.60;42.80;;;;;;5091915;28;20250;-72
2022/07/17 10:24:49;;;;;;;3.55;3.35;;;43.50;42.40;;;;;;5091684;28;20229;-79
2022/07/17 10:27:22;;;;;;;3.45;2.97;;;42.70;44.20;;;;;;5091756;28;20610;-80
2022/07/17 10:30:00;;;;;;;3.63;3.42;;;44.10;45.30;;;;;;5092152;28;20696;-76
2022/07/17 10:32:28;;;;;;;2.95;2.75;;;45.40;49.90;;;;;;5092191;28;20200;-80
2022/07/17 10:35:00;;;;;;;3.53;3.33;;;46.10;49.60;;;;;;5092437;28;20215;-81
2022/07/17 10:37:31;;;;;;;4.25;3.95;;;44.80;42.80;;;;;;5092236;28;20208;-79
2022/07/17 10:40:05;;;;;;;4.20;3.90;;;45.00;35.90;;;;;;5092008;28;20270;-84
2022/07/17 10:42:46;;;;;;;3.88;3.67;;;44.60;29.40;;;;;;5091547;28;20254;-79
2022/07/17 10:45:15;;;;;;;3.78;3.47;;;39.30;16.20;;;;;;5091692;28;20225;-83
2022/07/17 10:47:47;;;;;;;3.25;3.00;;;37.40;9.70;;;;;;5091833;28;20238;-82
2022/07/17 10:50:15;;;;;;;3.88;3.15;;;36.40;9.00;;;;;;5091297;28;20557;-81
2022/07/17 10:52:42;;;;;;;3.90;3.47;;;36.40;8.50;;;;;;5092404;28;20201;-78
2022/07/17 10:55:20;;;;;;;3.40;3.00;;;36.30;8.50;;;;;;5091086;28;20213;-80
2022/07/17 10:57:49;;;;;;;3.72;3.42;;;35.90;7.00;;;;;;5085368;28;20590;-82
2022/07/17 11:00:17;;;;;;;4.38;3.55;;;36.20;7.40;;;;;;5091226;28;20295;-83
2022/07/17 11:02:44;;;;;;;4.50;3.95;;;36.00;6.70;;;;;;5091149;28;20616;-81
2022/07/17 11:05:14;;;;;;;3.28;3.05;;;35.80;4.90;;;;;;5091404;28;20273;-79
2022/07/17 11:07:55;;;;;;;3.47;3.17;;;35.80;4.60;;;;;;5091632;28;20209;-80
2022/07/17 11:10:25;;;;;;;4.30;3.70;;;36.10;6.20;;;;;;5091389;28;20244;-83
2022/07/17 11:12:53;;;;;;;3.20;3.00;;;36.10;6.00;;;;;;5091820;28;20247;-87
2022/07/17 11:15:20;;;;;;;2.85;2.72;;;36.30;5.40;;;;;;5091520;28;20254;-87
2022/07/17 11:17:49;;;;;;;3.50;3.20;;;36.30;5.50;;;;;;5091566;28;20677;-82
2022/07/17 11:20:17;;;;;;;3.40;3.13;;;36.60;7.20;;;;;;5091224;28;20234;-81
2022/07/17 11:22:44;;;;;;;3.90;3.40;;;36.80;28.40;;;;;;5091528;28;20213;-85
2022/07/17 11:25:12;;;;;;;3.13;2.80;;;37.00;8.30;;;;;;5091492;28;20228;-86
2022/07/17 11:27:39;;;;;;;3.90;3.40;;;37.20;7.00;;;;;;5092001;28;20237;-83
2022/07/17 11:30:16;;;;;;;4.22;3.10;;;36.70;7.10;;;;;;5091029;28;20205;-86
2022/07/17 11:32:43;;;;;;;3.88;2.90;;;36.60;5.90;;;;;;5084522;28;20208;-85
2022/07/17 11:35:17;;;;;;;3.50;3.17;;;36.50;6.00;;;;;;5091495;28;20205;-86
2022/07/17 11:37:44;;;;;;;3.00;2.72;;;36.90;4.60;;;;;;5091256;28;20250;-87
2022/07/17 11:40:12;;;;;;;3.38;3.03;;;36.80;4.50;;;;;;5090912;28;20582;-87
2022/07/17 11:42:39;;;;;;;5.70;2.97;;;36.80;4.50;;;;;;5091131;28;20291;-80
2022/07/17 11:45:09;;;;;;;2.92;2.72;;;36.60;3.40;;;;;;5090607;28;20230;-83
2022/07/17 11:47:37;;;;;;;4.15;3.80;;;36.80;3.10;;;;;;5091115;28;20254;-79
2022/07/17 11:50:12;;;;;;;2.85;2.65;;;36.60;4.40;;;;;;5090170;28;20208;-70
2022/07/17 11:52:44;;;;;;;2.47;2.28;;;36.80;3.40;;;;;;5090284;28;20211;-70
2022/07/17 11:55:12;;;;;;;2.75;2.55;;;37.10;5.00;;;;;;5077264;28;20206;-70
2022/07/17 11:57:45;;;;;;;3.03;2.83;;;37.30;3.70;;;;;;5072766;28;20205;-75
2022/07/17 12:00:16;;;;;;;3.80;3.17;;;37.30;2.30;;;;;;5073167;28;20228;-72
2022/07/17 12:02:43;;;;;;;2.78;2.58;;;36.80;1.80;;;;;;5079607;28;20205;-73
2022/07/17 12:05:11;;;;;;;3.30;2.30;;;36.90;2.90;;;;;;5079730;28;20229;-67
2022/07/17 12:07:43;;;;;;;3.03;2.83;;;37.00;1.50;;;;;;5071514;28;20213;-68
2022/07/17 12:10:15;;;;;;;3.35;2.60;;;36.90;1.30;;;;;;5079100;28;20206;-71
2022/07/17 12:12:53;;;;;;;3.13;2.92;;;36.80;1.00;;;;;;5074095;28;20364;-67
2022/07/17 12:15:22;;;;;;;2.90;2.70;;;36.80;2.80;;;;;;5075042;28;20267;-80
2022/07/17 12:17:49;;;;;;;2.58;2.38;;;37.30;3.50;;;;;;5075321;28;20698;-73
2022/07/17 12:20:16;;;;;;;3.00;2.70;;;37.10;3.30;;;;;;5083129;28;20261;-79
2022/07/17 12:22:45;;;;;;;3.45;2.80;;;37.60;3.00;;;;;;5088876;28;20269;-78
2022/07/17 12:25:25;;;;;;;2.58;2.38;;;37.80;5.30;;;;;;5081028;28;20217;-77
2022/07/17 12:27:52;;;;;;;3.00;2.80;;;37.60;3.80;;;;;;5089155;28;20204;-78
2022/07/17 12:30:21;;;;;;;3.33;3.03;;;37.70;2.40;;;;;;5082228;28;20201;-79
2022/07/17 12:32:48;;;;;;;3.08;2.85;;;37.70;2.50;;;;;;5070884;28;20259;-75
2022/07/17 12:35:15;;;;;;;3.05;2.70;;;37.40;2.10;;;;;;5070757;28;20270;-69
2022/07/17 12:37:42;;;;;;;3.05;2.17;;;37.10;1.00;;;;;;5086854;28;20209;-75
2022/07/17 12:40:10;;;;;;;2.00;1.90;;;37.40;1.30;;;;;;5074238;28;20201;-78
2022/07/17 12:42:37;;;;;;;3.55;2.33;;;37.70;1.00;;;;;;5072807;28;20735;-81
2022/07/17 12:45:05;;;;;;;2.13;2.03;;;37.50;1.00;;;;;;5075415;28;20265;-80
2022/07/17 12:47:34;;;;;;;2.53;2.35;;;37.40;1.00;;;;;;5073334;28;20560;-80
2022/07/17 12:50:01;;;;;;;2.20;2.10;;;37.70;4.30;;;;;;5072584;28;20198;-78
2022/07/17 12:52:28;;;;;;;2.25;2.05;;;37.80;1.00;;;;;;5070118;28;20209;-76
2022/07/17 12:54:55;;;;;;;5.63;2.53;;;37.60;1.00;;;;;;5070079;28;20267;-78